createdAt,value
2022-12-25T00:01:45.475Z,33.20
2022-12-25T00:04:12.943Z,32.70
2022-12-25T00:06:40.723Z,34.78
2022-12-25T00:09:08.179Z,30.62
2022-12-25T00:11:35.948Z,21.90
2022-12-25T00:14:03.689Z,23.70
2022-12-25T00:16:31.509Z,20.85
2022-12-25T00:19:00.343Z,20.70
2022-12-25T00:21:28.487Z,23.32
2022-12-25T00:23:58.629Z,23.38
2022-12-25T00:26:27.815Z,20.80
2022-12-25T00:28:57.614Z,19.35
2022-12-25T00:31:25.887Z,18.60
2022-12-25T00:33:53.646Z,18.80
2022-12-25T00:36:23.145Z,18.87
2022-12-25T00:38:50.843Z,20.60
2022-12-25T00:41:24.807Z,28.85
2022-12-25T00:43:52.327Z,36.53
2022-12-25T00:46:20.082Z,27.62
2022-12-25T00:48:47.970Z,19.48
2022-12-25T00:51:17.293Z,13.32
2022-12-25T00:53:44.825Z,13.32
2022-12-25T00:56:12.646Z,14.47
2022-12-25T00:58:40.291Z,12.98
2022-12-25T01:01:11.175Z,14.33
2022-12-25T01:03:38.937Z,15.85
2022-12-25T01:06:08.287Z,19.67
2022-12-25T01:08:38.923Z,20.17
2022-12-25T01:11:08.831Z,20.62
2022-12-25T01:13:37.275Z,18.23
2022-12-25T01:16:11.678Z,18.35
2022-12-25T01:18:39.342Z,17.23
2022-12-25T01:21:15.346Z,17.60
2022-12-25T01:23:44.393Z,16.57
2022-12-25T01:26:14.599Z,17.60
2022-12-25T01:28:42.158Z,19.27
2022-12-25T01:31:14.176Z,20.43
2022-12-25T01:33:43.082Z,25.23
2022-12-25T01:36:20.659Z,27.15
2022-12-25T01:38:49.230Z,27.82
2022-12-25T01:41:20.984Z,23.85
2022-12-25T01:44:11.056Z,32.10
2022-12-25T01:46:46.999Z,33.55
2022-12-25T01:49:28.860Z,43.50
2022-12-25T01:52:07.593Z,51.10
2022-12-25T01:54:55.969Z,44.30
2022-12-25T01:57:35.280Z,48.13
2022-12-25T02:00:13.981Z,43.42
2022-12-25T02:02:44.803Z,42.98
2022-12-25T02:05:24.671Z,39.38
2022-12-25T02:07:52.897Z,35.00
2022-12-25T02:10:20.688Z,35.95
2022-12-25T02:12:49.091Z,35.00
2022-12-25T02:15:21.036Z,38.10
2022-12-25T02:18:08.928Z,30.70
2022-12-25T02:20:50.833Z,30.97
2022-12-25T02:23:53.182Z,29.80
2022-12-25T02:26:47.311Z,27.13
2022-12-25T02:29:32.229Z,34.85
2022-12-25T02:32:14.578Z,32.40
2022-12-25T02:34:52.881Z,30.60
2022-12-25T02:37:38.244Z,25.80
2022-12-25T02:40:29.631Z,23.07
2022-12-25T02:43:33.255Z,22.32
2022-12-25T02:46:29.609Z,25.20
2022-12-25T02:49:20.006Z,20.55
2022-12-25T02:52:11.211Z,19.07
2022-12-25T02:55:01.852Z,16.75
2022-12-25T02:57:53.579Z,18.57
2022-12-25T03:00:47.161Z,18.10
2022-12-25T03:03:39.233Z,18.35
2022-12-25T03:06:32.686Z,17.60
2022-12-25T03:09:26.228Z,19.98
2022-12-25T03:12:20.275Z,18.32
2022-12-25T03:15:15.728Z,18.20
2022-12-25T03:17:53.049Z,18.37
2022-12-25T03:20:44.704Z,21.57
2022-12-25T03:23:47.742Z,21.05
2022-12-25T03:26:41.688Z,21.42
2022-12-25T03:29:16.716Z,19.50
2022-12-25T03:31:53.359Z,22.17
2022-12-25T03:35:03.601Z,21.97
2022-12-25T03:38:14.215Z,22.07
2022-12-25T03:41:31.407Z,19.17
2022-12-25T03:44:46.434Z,19.85
2022-12-25T03:47:34.574Z,20.00
2022-12-25T03:50:57.019Z,20.82
2022-12-25T03:53:51.234Z,21.65
2022-12-25T03:56:38.731Z,21.80
2022-12-25T03:59:25.065Z,20.27
2022-12-25T04:02:11.661Z,21.52
2022-12-25T04:04:58.105Z,20.85
2022-12-25T04:07:44.018Z,20.08
2022-12-25T04:10:30.414Z,20.20
2022-12-25T04:13:16.225Z,17.42
2022-12-25T04:16:02.187Z,15.03
2022-12-25T04:18:48.746Z,22.35
2022-12-25T04:21:34.955Z,28.42
2022-12-25T04:24:20.594Z,25.52
2022-12-25T04:27:06.358Z,20.02
2022-12-25T04:29:52.420Z,23.95
2022-12-25T04:32:38.977Z,61.98
2022-12-25T04:35:25.703Z,36.93
2022-12-25T04:37:53.324Z,25.57
2022-12-25T04:40:21.239Z,24.15
2022-12-25T04:42:51.771Z,25.30
2022-12-25T04:45:20.181Z,28.40
2022-12-25T04:47:47.827Z,24.05
2022-12-25T04:50:15.644Z,24.63
2022-12-25T04:52:43.200Z,22.90
2022-12-25T04:55:11.514Z,22.52
2022-12-25T04:57:39.948Z,23.60
2022-12-25T05:00:08.708Z,19.65
2022-12-25T05:02:36.910Z,18.48
2022-12-25T05:05:05.039Z,20.77
2022-12-25T05:07:33.502Z,21.02
2022-12-25T05:10:01.141Z,19.42
2022-12-25T05:12:28.896Z,19.17
2022-12-25T05:14:56.391Z,16.10
2022-12-25T05:17:24.070Z,13.35
2022-12-25T05:19:53.799Z,12.07
2022-12-25T05:22:21.572Z,12.25
2022-12-25T05:24:49.678Z,13.58
2022-12-25T05:27:17.138Z,16.75
2022-12-25T05:29:44.994Z,18.27
2022-12-25T05:32:14.519Z,14.18
2022-12-25T05:34:42.134Z,16.10
2022-12-25T05:37:09.732Z,10.75
2022-12-25T05:39:37.323Z,13.98
2022-12-25T05:42:05.221Z,14.78
2022-12-25T05:44:32.835Z,13.90
2022-12-25T05:47:00.596Z,16.60
2022-12-25T05:49:28.111Z,14.20
2022-12-25T05:51:55.721Z,17.17
2022-12-25T05:54:23.387Z,11.22
2022-12-25T05:56:50.953Z,11.55
2022-12-25T05:59:18.598Z,12.03
2022-12-25T06:01:46.242Z,11.33
2022-12-25T06:04:13.867Z,11.10
2022-12-25T06:06:41.460Z,15.40
2022-12-25T06:09:12.751Z,13.53
2022-12-25T06:11:40.721Z,17.07
2022-12-25T06:14:13.873Z,11.70
2022-12-25T06:16:41.863Z,12.88
2022-12-25T06:19:09.448Z,13.05
2022-12-25T06:21:37.258Z,13.50
2022-12-25T06:24:05.328Z,20.17
2022-12-25T06:26:33.228Z,17.73
2022-12-25T06:29:00.745Z,14.80
2022-12-25T06:31:28.501Z,20.25
2022-12-25T06:33:56.398Z,31.68
2022-12-25T06:36:27.306Z,17.45
2022-12-25T06:38:56.287Z,16.60
2022-12-25T06:41:27.339Z,11.28
2022-12-25T06:43:59.313Z,13.15
2022-12-25T06:46:29.083Z,16.73
2022-12-25T06:48:59.024Z,8.23
2022-12-25T06:51:31.003Z,8.65
2022-12-25T06:54:01.565Z,8.28
2022-12-25T06:56:30.445Z,7.95
2022-12-25T06:59:02.321Z,7.45
2022-12-25T07:01:46.617Z,14.33
2022-12-25T07:04:38.122Z,12.98
2022-12-25T07:07:09.338Z,8.98
2022-12-25T07:09:38.245Z,7.55
2022-12-25T07:12:19.664Z,7.83
2022-12-25T07:14:50.648Z,7.95
2022-12-25T07:17:19.833Z,8.93
2022-12-25T07:19:47.798Z,8.98
2022-12-25T07:22:16.245Z,9.10
2022-12-25T07:24:43.682Z,12.23
2022-12-25T07:27:11.422Z,20.10
2022-12-25T07:29:39.109Z,14.10
2022-12-25T07:32:07.082Z,14.73
2022-12-25T07:34:34.893Z,13.70
2022-12-25T07:37:02.366Z,10.65
2022-12-25T07:39:30.028Z,10.90
2022-12-25T07:41:57.675Z,10.08
2022-12-25T07:44:27.152Z,8.90
2022-12-25T07:46:54.752Z,8.75
2022-12-25T07:49:22.474Z,11.68
2022-12-25T07:51:50.154Z,13.62
2022-12-25T07:54:19.798Z,13.48
2022-12-25T07:56:52.605Z,10.20
2022-12-25T07:59:20.661Z,11.35
2022-12-25T08:01:50.132Z,8.48
2022-12-25T08:04:17.929Z,9.68
2022-12-25T08:06:45.393Z,8.38
2022-12-25T08:09:13.405Z,12.18
2022-12-25T08:11:46.715Z,8.85
2022-12-25T08:14:15.050Z,9.20
2022-12-25T08:16:42.720Z,8.60
2022-12-25T08:19:11.104Z,8.18
2022-12-25T08:21:39.186Z,10.23
2022-12-25T08:24:07.296Z,8.20
2022-12-25T08:26:35.046Z,11.65
2022-12-25T08:29:02.579Z,9.25
2022-12-25T08:31:33.020Z,11.28
2022-12-25T08:34:03.010Z,8.38
2022-12-25T08:36:31.083Z,7.40
2022-12-25T08:39:03.072Z,8.00
2022-12-25T08:41:28.294Z,9.88
2022-12-25T08:43:57.321Z,8.83
2022-12-25T08:46:24.911Z,7.47
2022-12-25T08:48:52.648Z,9.55
2022-12-25T08:51:22.029Z,8.28
2022-12-25T08:53:52.550Z,7.05
2022-12-25T08:56:20.465Z,9.18
2022-12-25T08:58:47.825Z,9.25
2022-12-25T09:01:15.554Z,7.58
2022-12-25T09:03:46.599Z,7.97
2022-12-25T09:06:16.535Z,12.47
2022-12-25T09:08:49.069Z,9.23
2022-12-25T09:11:14.956Z,8.88
2022-12-25T09:13:44.581Z,7.87
2022-12-25T09:16:16.805Z,9.05
2022-12-25T09:18:44.518Z,10.55
2022-12-25T09:21:15.163Z,8.50
2022-12-25T09:23:43.425Z,8.55
2022-12-25T09:26:14.616Z,10.65
2022-12-25T09:28:50.294Z,9.00
2022-12-25T09:31:14.607Z,11.65
2022-12-25T09:33:42.285Z,10.58
2022-12-25T09:36:10.872Z,11.95
2022-12-25T09:38:38.506Z,7.85
2022-12-25T09:41:29.737Z,9.68
2022-12-25T09:44:23.425Z,8.28
2022-12-25T09:46:59.716Z,7.17
2022-12-25T09:49:53.464Z,7.75
2022-12-25T09:52:29.522Z,9.78
2022-12-25T09:55:08.587Z,18.17
2022-12-25T09:57:36.087Z,7.00
2022-12-25T10:00:06.107Z,7.28
2022-12-25T10:03:16.949Z,8.93
2022-12-25T10:06:08.233Z,6.72
2022-12-25T10:08:58.845Z,8.95
2022-12-25T10:12:23.555Z,6.87
2022-12-25T10:15:17.856Z,13.35
2022-12-25T10:20:51.755Z,8.48
2022-12-25T10:23:39.739Z,8.78
2022-12-25T10:26:22.621Z,8.08
2022-12-25T10:29:16.392Z,8.35
2022-12-25T10:31:50.056Z,10.30
2022-12-25T10:34:17.943Z,8.23
2022-12-25T10:36:46.771Z,23.35
2022-12-25T10:39:21.785Z,10.48
2022-12-25T10:42:25.353Z,41.85
2022-12-25T10:45:03.738Z,10.57
2022-12-25T10:47:37.448Z,17.40
2022-12-25T10:50:13.608Z,11.88
2022-12-25T10:53:04.659Z,20.40
2022-12-25T10:55:33.372Z,11.15
2022-12-25T10:58:01.695Z,14.87
2022-12-25T11:00:31.964Z,11.10
2022-12-25T11:03:00.560Z,12.60
2022-12-25T11:05:32.118Z,11.57
2022-12-25T11:08:02.693Z,7.65
2022-12-25T11:10:43.694Z,7.67
2022-12-25T11:13:24.104Z,47.30
2022-12-25T11:16:12.151Z,23.67
2022-12-25T11:18:49.718Z,17.95
2022-12-25T11:21:27.924Z,12.88
2022-12-25T11:24:08.956Z,16.80
2022-12-25T11:26:49.615Z,8.40
2022-12-25T11:29:35.086Z,7.80
2022-12-25T11:32:05.971Z,8.73
2022-12-25T11:34:41.342Z,10.65
2022-12-25T11:37:37.057Z,8.75
2022-12-25T11:40:07.230Z,10.85
2022-12-25T11:42:39.966Z,6.12
2022-12-25T11:45:18.310Z,10.50
2022-12-25T11:48:09.919Z,7.12
2022-12-25T11:50:48.039Z,9.03
2022-12-25T11:53:23.533Z,10.23
2022-12-25T11:55:56.180Z,47.48
2022-12-25T11:58:47.835Z,11.37
2022-12-25T12:01:44.779Z,9.20
2022-12-25T12:04:38.486Z,24.18
2022-12-25T12:07:18.992Z,12.60
2022-12-25T12:10:21.368Z,48.68
2022-12-25T12:13:17.346Z,10.40
2022-12-25T12:15:47.726Z,18.87
2022-12-25T12:18:29.589Z,13.83
2022-12-25T12:21:00.624Z,34.60
2022-12-25T12:23:33.003Z,8.43
2022-12-25T12:26:01.151Z,8.25
2022-12-25T12:28:34.225Z,9.55
2022-12-25T12:31:07.483Z,7.08
2022-12-25T12:33:42.279Z,9.78
2022-12-25T12:36:14.032Z,6.50
2022-12-25T12:38:44.140Z,8.53
2022-12-25T12:41:14.193Z,8.65
2022-12-25T12:43:49.992Z,8.70
2022-12-25T12:46:31.088Z,9.30
2022-12-25T12:49:16.296Z,6.10
2022-12-25T12:51:43.728Z,7.42
2022-12-25T12:54:23.103Z,5.95
2022-12-25T12:57:10.379Z,6.55
2022-12-25T12:59:48.038Z,6.45
2022-12-25T13:02:50.322Z,8.13
2022-12-25T13:05:50.492Z,7.55
2022-12-25T13:09:00.247Z,7.17
2022-12-25T13:11:32.189Z,8.05
2022-12-25T13:14:02.834Z,21.70
2022-12-25T13:16:39.104Z,22.22
2022-12-25T13:19:13.756Z,22.45
2022-12-25T13:21:47.910Z,12.68
2022-12-25T13:24:26.364Z,25.37
2022-12-25T13:26:54.692Z,19.62
2022-12-25T13:29:34.936Z,26.23
2022-12-25T13:32:06.999Z,14.25
2022-12-25T13:34:38.783Z,17.15
2022-12-25T13:37:19.536Z,20.40
2022-12-25T13:40:00.455Z,28.25
2022-12-25T13:42:35.867Z,12.65
2022-12-25T13:45:26.822Z,34.05
2022-12-25T13:47:55.734Z,21.65
2022-12-25T13:50:33.418Z,26.02
2022-12-25T13:53:15.465Z,21.15
2022-12-25T13:55:47.221Z,10.93
2022-12-25T13:58:20.218Z,14.28
2022-12-25T14:00:52.542Z,19.27
2022-12-25T14:03:36.861Z,21.25
2022-12-25T14:06:08.601Z,40.12
2022-12-25T14:08:36.571Z,24.05
2022-12-25T14:11:06.279Z,24.95
2022-12-25T14:13:38.043Z,20.15
2022-12-25T14:16:10.504Z,23.67
2022-12-25T14:18:38.292Z,27.37
2022-12-25T14:21:10.642Z,27.85
2022-12-25T14:23:45.256Z,23.25
2022-12-25T14:26:29.236Z,24.72
2022-12-25T14:29:16.488Z,24.25
2022-12-25T14:31:40.369Z,29.05
2022-12-25T14:34:19.073Z,28.52
2022-12-25T14:36:47.617Z,23.38
2022-12-25T14:39:38.159Z,26.10
2022-12-25T14:42:19.974Z,25.37
2022-12-25T14:45:09.383Z,27.85
2022-12-25T14:47:54.345Z,23.95
2022-12-25T14:50:36.916Z,24.87
2022-12-25T14:53:08.377Z,21.17
2022-12-25T14:55:37.048Z,22.70
2022-12-25T14:58:07.680Z,26.52
2022-12-25T15:00:38.312Z,35.25
2022-12-25T15:03:20.368Z,33.13
2022-12-25T15:06:07.460Z,48.92
2022-12-25T15:08:35.308Z,35.92
2022-12-25T15:11:03.691Z,39.95
2022-12-25T15:13:32.113Z,45.78
2022-12-25T15:16:05.465Z,61.65
2022-12-25T15:18:40.843Z,49.15
2022-12-25T15:21:23.256Z,41.30
2022-12-25T15:23:54.578Z,39.65
2022-12-25T15:26:22.662Z,37.63
2022-12-25T15:28:50.255Z,40.17
2022-12-25T15:31:28.159Z,26.42
2022-12-25T15:33:59.000Z,30.80
2022-12-25T15:36:27.299Z,23.18
2022-12-25T15:38:55.917Z,27.37
2022-12-25T15:41:54.799Z,31.52
2022-12-25T15:44:24.138Z,39.48
2022-12-25T15:46:52.216Z,36.65
2022-12-25T15:49:20.038Z,61.80
2022-12-25T15:51:47.936Z,59.33
2022-12-25T15:54:15.897Z,55.60
2022-12-25T15:56:50.506Z,66.45
2022-12-25T15:59:20.171Z,70.67
2022-12-25T16:01:54.838Z,71.30
2022-12-25T16:04:24.149Z,66.97
2022-12-25T16:06:52.543Z,94.70
2022-12-25T16:09:21.541Z,81.50
2022-12-25T16:11:49.529Z,94.67
2022-12-25T16:14:18.935Z,85.97
2022-12-25T16:16:46.696Z,68.95
2022-12-25T16:19:14.188Z,73.92
2022-12-25T16:21:45.341Z,91.10
2022-12-25T16:24:13.674Z,76.97
2022-12-25T16:26:42.010Z,74.80
2022-12-25T16:29:09.904Z,79.17
2022-12-25T16:31:38.031Z,77.67
2022-12-25T16:34:07.588Z,87.10
2022-12-25T16:36:36.589Z,96.72
2022-12-25T16:39:05.031Z,100.58
2022-12-25T16:41:32.650Z,89.80
2022-12-25T16:44:07.380Z,94.75
2022-12-25T16:46:36.309Z,86.32
2022-12-25T16:49:04.084Z,99.52
2022-12-25T16:51:32.103Z,100.50
2022-12-25T16:53:59.791Z,118.82
2022-12-25T16:56:28.732Z,88.62
2022-12-25T16:58:57.829Z,89.72
2022-12-25T17:01:26.116Z,85.72
2022-12-25T17:03:54.216Z,65.47
2022-12-25T17:06:27.846Z,54.03
2022-12-25T17:11:29.203Z,52.75
2022-12-25T17:14:01.464Z,50.95
2022-12-25T17:16:35.348Z,67.78
2022-12-25T17:19:10.526Z,113.77
2022-12-25T17:21:37.965Z,111.52
2022-12-25T17:24:06.789Z,113.35
2022-12-25T17:26:35.387Z,97.22
2022-12-25T17:29:03.455Z,88.75
2022-12-25T17:31:31.397Z,92.92
2022-12-25T17:34:02.211Z,110.32
2022-12-25T17:36:30.822Z,96.42
2022-12-25T17:39:03.840Z,94.87
2022-12-25T17:41:32.501Z,111.65
2022-12-25T17:44:00.377Z,112.62
2022-12-25T17:46:29.875Z,102.45
2022-12-25T17:49:00.687Z,103.12
2022-12-25T17:51:30.340Z,112.20
2022-12-25T17:54:02.678Z,116.17
2022-12-25T17:56:31.963Z,97.97
2022-12-25T17:59:03.992Z,100.38
2022-12-25T18:01:31.569Z,87.15
2022-12-25T18:03:59.997Z,85.50
2022-12-25T18:06:29.088Z,83.52
2022-12-25T18:08:58.252Z,91.05
2022-12-25T18:11:31.000Z,86.67
2022-12-25T18:14:02.172Z,83.15
2022-12-25T18:16:33.013Z,78.50
2022-12-25T18:19:00.931Z,86.87
2022-12-25T18:21:29.019Z,87.33
2022-12-25T18:23:56.634Z,54.00
2022-12-25T18:26:25.462Z,45.70
2022-12-25T18:28:53.191Z,43.95
2022-12-25T18:31:23.877Z,44.10
2022-12-25T18:33:52.755Z,39.98
2022-12-25T18:36:24.024Z,49.33
2022-12-25T18:38:53.790Z,69.03
2022-12-25T18:41:23.448Z,64.27
2022-12-25T18:43:55.227Z,61.35
2022-12-25T18:46:23.470Z,61.15
2022-12-25T18:48:51.826Z,67.05
2022-12-25T18:51:19.510Z,68.65
2022-12-25T18:53:47.013Z,64.20
2022-12-25T18:56:17.286Z,79.90
2022-12-25T18:58:47.134Z,78.55
2022-12-25T19:01:19.489Z,78.52
2022-12-25T19:03:49.600Z,71.77
2022-12-25T19:06:27.210Z,66.12
2022-12-25T19:08:55.954Z,66.12
2022-12-25T19:11:23.736Z,70.83
2022-12-25T19:13:51.460Z,74.70
2022-12-25T19:16:19.549Z,69.47
2022-12-25T19:18:47.420Z,67.22
2022-12-25T19:21:15.593Z,67.60
2022-12-25T19:23:43.960Z,82.15
2022-12-25T19:26:11.983Z,73.70
2022-12-25T19:28:40.930Z,76.12
2022-12-25T19:31:09.984Z,81.97
2022-12-25T19:33:43.165Z,72.50
2022-12-25T19:36:14.198Z,81.08
2022-12-25T19:38:43.544Z,87.25
2022-12-25T19:41:18.062Z,91.87
2022-12-25T19:43:47.832Z,89.45
2022-12-25T19:46:21.131Z,88.85
2022-12-25T19:48:49.088Z,84.65
2022-12-25T19:51:27.370Z,99.13
2022-12-25T19:53:58.628Z,74.47
2022-12-25T19:56:28.296Z,69.42
2022-12-25T19:58:56.841Z,61.90
2022-12-25T20:01:27.675Z,96.53
2022-12-25T20:03:55.437Z,88.50
2022-12-25T20:06:28.101Z,85.32
2022-12-25T20:09:00.858Z,85.55
2022-12-25T20:11:30.514Z,77.57
2022-12-25T20:13:58.927Z,77.45
2022-12-25T20:16:27.044Z,87.60
2022-12-25T20:18:55.997Z,67.70
2022-12-25T20:21:24.131Z,74.30
2022-12-25T20:23:54.007Z,101.65
2022-12-25T20:26:25.821Z,103.17
2022-12-25T20:28:54.090Z,103.12
2022-12-25T20:31:29.078Z,83.15
2022-12-25T20:34:00.745Z,138.62
2022-12-25T20:36:34.640Z,147.00
2022-12-25T20:38:58.164Z,157.97
2022-12-25T20:41:27.918Z,88.12
2022-12-25T20:43:55.778Z,80.10
2022-12-25T20:46:24.885Z,63.38
2022-12-25T20:48:53.216Z,67.05
2022-12-25T20:51:24.600Z,84.28
2022-12-25T20:53:54.279Z,66.00
2022-12-25T20:56:25.098Z,68.50
2022-12-25T20:58:57.075Z,77.65
2022-12-25T21:01:24.984Z,66.07
2022-12-25T21:03:53.667Z,75.05
2022-12-25T21:06:22.366Z,60.92
2022-12-25T21:08:49.990Z,102.80
2022-12-25T21:11:17.720Z,118.93
2022-12-25T21:13:46.274Z,95.35
2022-12-25T21:16:19.595Z,93.42
2022-12-25T21:18:48.941Z,147.55
2022-12-25T21:21:16.730Z,115.67
2022-12-25T21:23:45.058Z,112.88
2022-12-25T21:26:23.838Z,93.25
2022-12-25T21:28:55.544Z,112.30
2022-12-25T21:31:24.753Z,101.50
2022-12-25T21:33:54.650Z,93.07
2022-12-25T21:36:29.841Z,92.78
2022-12-25T21:39:05.191Z,102.17
2022-12-25T21:41:36.578Z,105.72
2022-12-25T21:44:05.662Z,65.80
2022-12-25T21:46:33.563Z,57.25
2022-12-25T21:49:01.349Z,54.33
2022-12-25T21:51:52.972Z,61.73
2022-12-25T21:54:23.045Z,54.88
2022-12-25T21:56:50.678Z,63.60
2022-12-25T21:59:21.377Z,62.23
2022-12-25T22:01:51.422Z,69.90
2022-12-25T22:04:22.650Z,72.32
2022-12-25T22:07:08.874Z,85.05
2022-12-25T22:09:37.472Z,82.35
2022-12-25T22:12:27.363Z,93.75
2022-12-25T22:14:57.093Z,107.22
2022-12-25T22:17:50.470Z,101.92
2022-12-25T22:20:23.374Z,126.58
2022-12-25T22:22:51.720Z,99.97
2022-12-25T22:25:20.222Z,95.55
2022-12-25T22:27:48.984Z,89.72
2022-12-25T22:30:26.265Z,72.10
2022-12-25T22:32:54.445Z,63.60
2022-12-25T22:35:21.994Z,72.25
2022-12-25T22:37:49.995Z,80.50
2022-12-25T22:40:20.061Z,63.10
2022-12-25T22:42:47.931Z,38.13
2022-12-25T22:45:15.688Z,31.95
2022-12-25T22:47:43.352Z,33.15
2022-12-25T22:50:16.650Z,45.15
2022-12-25T22:52:45.199Z,51.73
2022-12-25T22:55:17.446Z,64.03
2022-12-25T22:57:45.097Z,59.42
2022-12-25T23:00:13.859Z,55.52
2022-12-25T23:02:41.834Z,59.93
2022-12-25T23:05:09.694Z,63.40
2022-12-25T23:07:37.406Z,64.65
2022-12-25T23:10:07.050Z,55.75
2022-12-25T23:12:53.020Z,57.55
2022-12-25T23:15:20.907Z,54.53
2022-12-25T23:18:07.019Z,58.15
2022-12-25T23:20:54.917Z,63.08
2022-12-25T23:23:41.866Z,63.80
2022-12-25T23:26:11.757Z,55.67
2022-12-25T23:29:01.167Z,58.83
2022-12-25T23:31:34.018Z,58.33
2022-12-25T23:34:02.345Z,55.20
2022-12-25T23:36:30.039Z,50.83
2022-12-25T23:39:03.104Z,52.73
2022-12-25T23:41:27.197Z,42.80
2022-12-25T23:43:55.139Z,37.80
2022-12-25T23:46:22.555Z,31.82
2022-12-25T23:48:50.130Z,30.85
2022-12-25T23:51:17.707Z,31.37
2022-12-25T23:53:45.510Z,30.23
2022-12-25T23:56:14.174Z,31.27
2022-12-25T23:58:44.154Z,32.70
